Aérodrome :
LOGIN :

S'inscrire | Disclaimer

   EN    FR    IT 

 










Légende :    VFR   VFR Marginal   IFR   IFR Intensif   IFR Très Intensif
Visi : 
Plafond : 
>= 8 km
>= 3000ft
5 à 8 km
1000 à 3000 ft
1500m à 5 km
500 à 1000 ft
800 à 1500m
200 à 500 ft
< 800m
< 200 ft
Symboles :   Orages  Brouillard  Fortes neiges  Fortes précipitations  Vent > 20 kt
SIGMETs :   Divers  Orages  Givrage  Turbulence  Onde Orograph.  Cendres Volcan.







- Altitude de l'aérodrome : 1046 ft
- Code IATA : NUE


EDDN - Nuremberg

DERNIER METAR :
  • 200120Z 00000KT 9999 FEW036 BKN083 05/05 Q1020

METARs EXPIRÉS :
  • 200050Z VRB01KT 9999 SCT036 BKN083 05/05 Q1020
  • 200020Z 00000KT 9999 BCFG NSC 04/04 Q1020
  • 192350Z 00000KT 9999 BCFG NSC 06/05 Q1020
  • 192320Z 00000KT 9999 BCFG FEW032 05/05 Q1019
  • 192250Z 00000KT 9999 BCFG FEW032 06/05 Q1019

TAF TAF EDDN
Valide du 20 à 00h jusqu'au 21 à 00h UTC


192300Z 2000/2024 VRB03KT 9999 FEW045
TEMPO 2000/2007 2500 BCFG
PROB30
TEMPO 2002/2006 0500 FG
TEMPO 2005/2007 BKN006
TEMPO 2007/2009 BKN012
BECMG 2007/2009 30006KT
BECMG 2018/2020 VRB02KT
Pas de NOTAMs connus pour ce terrain.



MET'MAP, la Météo Aéronautique d'un coup d'oeil ! - Copyright ORBIFLY Décembre 2007 - Disclaimer

ORBIFLY MET'MAP TEAM :

Programmation & Développement : Alexandra Zaïnal
Conception & Développement : Baudouin d'Aumeries
Co-Programmation & Développement : Marc-Olivier Méhu
Soutien technique & logistique : Manuel Goepfert

Contact : metmap@orbifly.com




SOURCES & CREDITS :

   NOAA